Time;durP1;ratioP1;P1;durP2;ratioP2;P2;SDS_P1;SDS_P2;PMS_P1;PMS_P2;Temp;Humidity;BMP_temperature;BMP_pressure;BME280_temperature;BME280_humidity;BME280_pressure;Samples;Min_cycle;Max_cycle;Signal;HPM_P1;HPM_P2
2022/12/16 00:01:43;;;;;;;62.20;25.10;;;;;;;-4.44;100.00;100861.00;6194977;23;20005;-89
2022/12/16 00:04:11;;;;;;;54.13;25.37;;;;;;;-4.36;100.00;100868.88;6169086;23;20008;-90
2022/12/16 00:09:27;;;;;;;57.40;25.58;;;;;;;-4.39;100.00;100852.69;6182967;22;20021;-90
2022/12/16 00:12:05;;;;;;;59.00;27.05;;;;;;;-4.28;100.00;100863.66;6156246;23;20005;-89
2022/12/16 00:15:03;;;;;;;56.60;25.13;;;;;;;-4.11;100.00;100877.63;6184555;23;20012;-89
2022/12/16 00:17:35;;;;;;;58.42;24.50;;;;;;;-4.24;100.00;100852.88;6183254;23;20013;-90
2022/12/16 00:20:10;;;;;;;55.38;24.60;;;;;;;-4.23;100.00;100850.13;6183390;23;20008;-90
2022/12/16 00:22:57;;;;;;;54.20;24.80;;;;;;;-3.99;100.00;100879.94;6182619;23;20009;-90
2022/12/16 00:25:38;;;;;;;61.90;24.77;;;;;;;-4.16;100.00;100852.91;6184043;23;20294;-90
2022/12/16 00:28:28;;;;;;;56.30;24.60;;;;;;;-3.95;100.00;100876.03;6157438;23;20337;-90
2022/12/16 00:30:54;;;;;;;52.28;23.52;;;;;;;-4.06;100.00;100858.00;6181734;23;20341;-90
2022/12/16 00:33:38;;;;;;;46.75;22.92;;;;;;;-4.09;100.00;100853.91;6183014;23;20093;-90
2022/12/16 00:36:13;;;;;;;46.53;22.90;;;;;;;-4.12;100.00;100844.56;6182970;23;20012;-91
2022/12/16 00:38:56;;;;;;;52.85;23.50;;;;;;;-4.02;100.00;100859.34;6183085;23;20001;-90
2022/12/16 00:41:31;;;;;;;52.00;23.25;;;;;;;-4.07;100.00;100843.28;6182945;23;20059;-90
2022/12/16 00:44:06;;;;;;;54.37;23.07;;;;;;;-3.94;100.00;100864.56;6182522;23;20028;-90
2022/12/16 00:46:53;;;;;;;50.70;23.17;;;;;;;-3.84;100.00;100874.91;6182552;23;20247;-90
2022/12/16 00:49:29;;;;;;;50.35;23.63;;;;;;;-3.82;100.00;100880.78;6183282;23;20005;-90
2022/12/16 00:51:54;;;;;;;59.20;24.45;;;;;;;-3.90;100.00;100859.81;6182750;23;20005;-90
2022/12/16 00:54:38;;;;;;;53.40;23.83;;;;;;;-3.87;100.00;100862.13;6184072;23;20017;-90
2022/12/16 00:57:13;;;;;;;56.55;23.75;;;;;;;-3.88;100.00;100861.31;6184648;23;20005;-90
2022/12/16 01:03:00;;;;;;;47.08;21.98;;;;;;;-3.68;100.00;100877.53;6184539;23;20024;-90
2022/12/16 01:05:52;;;;;;;45.13;22.63;;;;;;;-3.73;100.00;100865.91;6185614;23;20076;-90
2022/12/16 01:08:55;;;;;;;54.10;23.40;;;;;;;-3.65;100.00;100876.38;6168665;23;20044;-90
2022/12/16 01:11:23;;;;;;;49.63;23.45;;;;;;;-3.68;100.00;100864.44;6064053;23;20003;-90
2022/12/16 01:13:50;;;;;;;51.63;23.20;;;;;;;-3.53;100.00;100890.81;6064464;23;20011;-90
2022/12/16 01:16:16;;;;;;;46.03;21.70;;;;;;;-3.51;100.00;100888.03;6039782;23;20463;-90
2022/12/16 01:19:00;;;;;;;48.00;23.47;;;;;;;-3.41;100.00;100904.41;6064123;23;20007;-91
2022/12/16 01:38:00;;;;;;;47.50;21.95;;;;;;;-3.31;100.00;100930.47;6211891;22;20021;-90
2022/12/16 01:41:16;;;;;;;46.53;22.58;;;;;;;-3.31;100.00;100929.63;6186171;23;20078;-90
2022/12/16 01:44:23;;;;;;;53.05;23.27;;;;;;;-3.31;100.00;100925.22;6187809;23;20430;-90
2022/12/16 01:46:52;;;;;;;51.65;22.67;;;;;;;-3.36;100.00;100920.44;6164646;23;20019;-90
2022/12/16 01:49:59;;;;;;;52.17;23.70;;;;;;;-3.31;100.00;100930.47;6192503;23;20012;-91
2022/12/16 01:52:30;;;;;;;50.27;22.30;;;;;;;-3.33;100.00;100939.47;6168678;23;20012;-90
2022/12/16 01:55:02;;;;;;;56.00;25.07;;;;;;;-3.30;100.00;100953.06;6163691;23;20330;-91
2022/12/16 02:00:27;;;;;;;47.72;22.30;;;;;;;-3.44;100.00;100920.47;6189646;22;20024;-90
2022/12/16 02:10:45;;;;;;;50.58;23.27;;;;;;;-3.25;100.00;100955.19;6190802;22;20025;-90
2022/12/16 02:13:50;;;;;;;45.17;21.07;;;;;;;-3.24;100.00;100955.03;6184430;23;20292;-94
2022/12/16 02:16:34;;;;;;;44.95;20.40;;;;;;;-3.22;100.00;100957.50;6185001;23;20016;-93
2022/12/16 02:19:27;;;;;;;43.90;21.10;;;;;;;-3.21;100.00;100959.16;6154756;23;20005;-92
2022/12/16 02:22:29;;;;;;;49.17;22.17;;;;;;;-3.18;100.00;100960.59;6153019;23;20457;-93
2022/12/16 02:25:37;;;;;;;53.85;22.52;;;;;;;-3.16;100.00;100958.66;6127225;23;20006;-93
2022/12/16 02:28:07;;;;;;;44.95;21.70;;;;;;;-3.13;100.00;100968.81;6126757;23;20031;-94
2022/12/16 02:30:40;;;;;;;48.05;21.65;;;;;;;-3.14;100.00;100961.94;6153005;23;20430;-94
2022/12/16 02:33:42;;;;;;;46.23;21.03;;;;;;;-3.08;100.00;100975.19;6152972;23;20432;-94
2022/12/16 02:36:31;;;;;;;44.73;20.40;;;;;;;-3.07;100.00;100976.00;6153701;23;20334;-94
2022/12/16 02:39:14;;;;;;;47.70;21.30;;;;;;;-3.11;100.00;100965.03;6153392;23;20029;-93
2022/12/16 02:41:42;;;;;;;47.95;22.08;;;;;;;-3.03;100.00;100974.69;6126765;23;20441;-93
2022/12/16 02:44:10;;;;;;;45.03;21.40;;;;;;;-3.03;100.00;100966.81;6153958;23;20002;-92
2022/12/16 02:46:54;;;;;;;41.38;21.20;;;;;;;-3.02;100.00;100967.66;6152957;23;20315;-93
2022/12/16 02:49:19;;;;;;;44.55;22.27;;;;;;;-2.98;100.00;100975.03;6153864;23;20005;-94
2022/12/16 02:51:44;;;;;;;44.57;21.57;;;;;;;-2.98;100.00;100976.81;6152770;23;20080;-92
2022/12/16 02:54:11;;;;;;;44.90;21.13;;;;;;;-3.05;100.00;100967.00;6127302;23;20093;-93
2022/12/16 02:56:43;;;;;;;48.10;21.15;;;;;;;-2.93;100.00;100983.22;6153572;23;20009;-93
2022/12/16 02:59:24;;;;;;;45.92;21.48;;;;;;;-2.97;100.00;100968.81;6151983;23;20009;-93
2022/12/16 03:01:59;;;;;;;44.22;22.73;;;;;;;-2.96;100.00;100973.06;6126458;23;20005;-93
2022/12/16 03:04:36;;;;;;;48.00;22.57;;;;;;;-2.94;100.00;100976.34;6153243;23;20013;-93
2022/12/16 03:07:06;;;;;;;46.00;22.00;;;;;;;-2.90;100.00;100987.31;6153495;23;20249;-93
2022/12/16 03:09:35;;;;;;;48.67;21.88;;;;;;;-2.90;100.00;100985.50;6126748;23;20012;-93
2022/12/16 03:12:05;;;;;;;51.55;23.23;;;;;;;-2.88;100.00;100985.34;6150829;23;20020;-93
2022/12/16 03:14:34;;;;;;;49.03;22.63;;;;;;;-2.91;100.00;100980.44;6153526;23;20010;-93
2022/12/16 03:17:00;;;;;;;45.45;23.00;;;;;;;-2.94;100.00;100978.13;6125985;23;20427;-93
2022/12/16 03:19:27;;;;;;;49.78;23.30;;;;;;;-2.91;100.00;100978.63;6126709;23;20002;-92
2022/12/16 03:22:01;;;;;;;48.28;23.63;;;;;;;-2.86;100.00;100995.66;6152351;23;20025;-91
2022/12/16 03:24:28;;;;;;;49.33;23.23;;;;;;;-2.87;100.00;101000.09;6126896;23;20093;-93
2022/12/16 03:27:15;;;;;;;50.97;22.85;;;;;;;-2.87;100.00;100988.78;6127114;23;20009;-93
2022/12/16 03:29:47;;;;;;;56.20;25.08;;;;;;;-2.98;100.00;100979.44;6155848;23;20016;-93
2022/12/16 03:32:31;;;;;;;48.67;24.10;;;;;;;-3.01;100.00;100985.84;6168432;23;20009;-93
2022/12/16 03:35:23;;;;;;;58.78;24.08;;;;;;;-2.96;100.00;100994.03;6152420;23;20001;-91
2022/12/16 03:37:56;;;;;;;53.70;25.05;;;;;;;-2.95;100.00;100995.69;6126330;23;20009;-91
2022/12/16 03:40:24;;;;;;;53.63;24.93;;;;;;;-3.03;100.00;100995.66;6152689;23;20060;-92
2022/12/16 03:42:53;;;;;;;53.13;24.17;;;;;;;-3.08;100.00;101003.19;6151952;23;20292;-91
2022/12/16 03:45:36;;;;;;;53.47;25.95;;;;;;;-3.13;100.00;101003.69;6122364;23;20013;-92
2022/12/16 03:48:09;;;;;;;54.40;26.00;;;;;;;-3.21;100.00;101001.88;6170016;22;20097;-91
2022/12/16 03:50:44;;;;;;;55.83;26.40;;;;;;;-3.31;100.00;101003.03;6181112;23;20013;-91
2022/12/16 03:53:46;;;;;;;57.17;26.77;;;;;;;-3.35;100.00;101005.97;6181626;23;20472;-90
2022/12/16 03:56:19;;;;;;;59.08;26.92;;;;;;;-3.54;100.00;100986.13;6182273;23;20008;-91
2022/12/16 03:58:45;;;;;;;54.90;24.03;;;;;;;-3.53;100.00;100998.25;6182132;23;20004;-91
2022/12/16 04:01:12;;;;;;;59.57;26.63;;;;;;;-3.40;100.00;101005.63;6154853;23;20335;-91
2022/12/16 04:03:38;;;;;;;66.85;29.55;;;;;;;-3.38;100.00;101010.72;6181178;23;20001;-91
2022/12/16 04:06:04;;;;;;;66.07;27.75;;;;;;;-3.33;100.00;101021.53;6182714;23;20051;-91
2022/12/16 04:08:32;;;;;;;61.53;28.45;;;;;;;-3.25;100.00;101018.91;6181318;23;20414;-91
2022/12/16 04:25:01;;;;;;;61.13;28.52;;;;;;;-2.97;100.00;101036.16;6182070;23;20040;-91
2022/12/16 04:27:28;;;;;;;60.70;28.33;;;;;;;-2.95;100.00;101045.50;6182875;23;20546;-90
